sensor_id;sensor_type;location;lat;lon;timestamp;pressure;altitude;pressure_sealevel;temperature;humidity
76853;BME280;65825;52.232;10.566;2023-07-13T00:02:06;100519.47;;;16.13;100.00
76853;BME280;65825;52.232;10.566;2023-07-13T00:04:32;100516.78;;;16.13;100.00
76853;BME280;65825;52.232;10.566;2023-07-13T00:06:57;100520.59;;;16.09;100.00
76853;BME280;65825;52.232;10.566;2023-07-13T00:09:23;100526.84;;;16.08;100.00
76853;BME280;65825;52.232;10.566;2023-07-13T00:11:56;100520.50;;;16.26;100.00
76853;BME280;65825;52.232;10.566;2023-07-13T00:14:22;100531.97;;;16.26;100.00
76853;BME280;65825;52.232;10.566;2023-07-13T00:16:47;100526.09;;;16.21;100.00
76853;BME280;65825;52.232;10.566;2023-07-13T00:19:14;100533.09;;;16.38;100.00
76853;BME280;65825;52.232;10.566;2023-07-13T00:21:39;100533.09;;;16.38;98.69
76853;BME280;65825;52.232;10.566;2023-07-13T00:24:06;100539.06;;;16.43;98.36
76853;BME280;65825;52.232;10.566;2023-07-13T00:26:32;100536.22;;;16.46;97.23
76853;BME280;65825;52.232;10.566;2023-07-13T00:28:58;100530.63;;;16.35;96.68
76853;BME280;65825;52.232;10.566;2023-07-13T00:31:23;100527.09;;;16.34;96.85
76853;BME280;65825;52.232;10.566;2023-07-13T00:33:49;100525.63;;;16.29;96.82
76853;BME280;65825;52.232;10.566;2023-07-13T00:36:14;100530.94;;;16.29;96.35
76853;BME280;65825;52.232;10.566;2023-07-13T00:38:40;100525.91;;;16.24;97.00
76853;BME280;65825;52.232;10.566;2023-07-13T00:41:05;100523.50;;;16.20;97.32
76853;BME280;65825;52.232;10.566;2023-07-13T00:43:31;100529.50;;;16.23;97.14
76853;BME280;65825;52.232;10.566;2023-07-13T00:48:40;100543.19;;;16.17;97.14
76853;BME280;65825;52.232;10.566;2023-07-13T00:51:06;100536.13;;;16.32;96.53
76853;BME280;65825;52.232;10.566;2023-07-13T00:53:32;100542.84;;;16.39;96.50
76853;BME280;65825;52.232;10.566;2023-07-13T00:55:58;100547.72;;;16.31;96.69
76853;BME280;65825;52.232;10.566;2023-07-13T00:58:25;100546.44;;;16.22;97.27
76853;BME280;65825;52.232;10.566;2023-07-13T01:00:51;100540.94;;;16.25;98.07
76853;BME280;65825;52.232;10.566;2023-07-13T01:03:16;100545.75;;;16.34;97.04
76853;BME280;65825;52.232;10.566;2023-07-13T01:05:42;100535.53;;;16.27;97.17
76853;BME280;65825;52.232;10.566;2023-07-13T01:08:08;100537.75;;;16.34;98.55
76853;BME280;65825;52.232;10.566;2023-07-13T01:10:34;100532.50;;;16.33;97.69
76853;BME280;65825;52.232;10.566;2023-07-13T01:13:05;100532.69;;;16.30;98.26
76853;BME280;65825;52.232;10.566;2023-07-13T01:15:45;100538.22;;;16.42;98.46
76853;BME280;65825;52.232;10.566;2023-07-13T01:18:14;100537.75;;;16.34;100.00
76853;BME280;65825;52.232;10.566;2023-07-13T01:20:41;100531.75;;;16.31;100.00
76853;BME280;65825;52.232;10.566;2023-07-13T01:23:11;100537.66;;;16.20;100.00
76853;BME280;65825;52.232;10.566;2023-07-13T01:25:38;100537.41;;;16.09;100.00
76853;BME280;65825;52.232;10.566;2023-07-13T01:28:05;100540.69;;;15.99;100.00
76853;BME280;65825;52.232;10.566;2023-07-13T01:30:31;100528.31;;;15.98;100.00
76853;BME280;65825;52.232;10.566;2023-07-13T01:32:57;100526.94;;;15.91;100.00
76853;BME280;65825;52.232;10.566;2023-07-13T01:35:22;100537.47;;;15.77;100.00
76853;BME280;65825;52.232;10.566;2023-07-13T01:37:48;100541.00;;;15.62;100.00
76853;BME280;65825;52.232;10.566;2023-07-13T01:40:13;100539.47;;;15.41;100.00
76853;BME280;65825;52.232;10.566;2023-07-13T01:42:38;100544.81;;;15.24;100.00
76853;BME280;65825;52.232;10.566;2023-07-13T01:45:04;100548.41;;;15.23;100.00
76853;BME280;65825;52.232;10.566;2023-07-13T01:47:30;100550.31;;;15.21;100.00
76853;BME280;65825;52.232;10.566;2023-07-13T01:49:56;100545.91;;;15.20;100.00
76853;BME280;65825;52.232;10.566;2023-07-13T01:52:21;100540.38;;;15.24;100.00
76853;BME280;65825;52.232;10.566;2023-07-13T01:54:47;100539.34;;;15.27;100.00
76853;BME280;65825;52.232;10.566;2023-07-13T01:57:12;100535.88;;;15.25;100.00
76853;BME280;65825;52.232;10.566;2023-07-13T01:59:37;100538.66;;;15.23;100.00
76853;BME280;65825;52.232;10.566;2023-07-13T02:02:03;100540.91;;;15.31;100.00
76853;BME280;65825;52.232;10.566;2023-07-13T02:04:28;100551.00;;;15.24;100.00
76853;BME280;65825;52.232;10.566;2023-07-13T02:06:53;100539.81;;;15.18;100.00
76853;BME280;65825;52.232;10.566;2023-07-13T02:09:20;100545.28;;;15.15;100.00
76853;BME280;65825;52.232;10.566;2023-07-13T02:11:45;100546.09;;;15.34;100.00
76853;BME280;65825;52.232;10.566;2023-07-13T02:14:11;100551.75;;;15.43;100.00
76853;BME280;65825;52.232;10.566;2023-07-13T02:16:36;100551.41;;;15.34;100.00
76853;BME280;65825;52.232;10.566;2023-07-13T02:19:01;100545.94;;;15.37;100.00
76853;BME280;65825;52.232;10.566;2023-07-13T02:21:27;100554.44;;;15.26;100.00
76853;BME280;65825;52.232;10.566;2023-07-13T02:23:52;100546.09;;;15.34;100.00
76853;BME280;65825;52.232;10.566;2023-07-13T02:26:18;100567.09;;;15.38;100.00
76853;BME280;65825;52.232;10.566;2023-07-13T02:28:43;100569.88;;;15.37;100.00
76853;BME280;65825;52.232;10.566;2023-07-13T02:31:10;100567.72;;;15.43;100.00
76853;BME280;65825;52.232;10.566;2023-07-13T02:33:36;100568.88;;;15.55;100.00
76853;BME280;65825;52.232;10.566;2023-07-13T02:36:02;100565.88;;;15.61;100.00
76853;BME280;65825;52.232;10.566;2023-07-13T02:38:27;100566.41;;;15.67;100.00
76853;BME280;65825;52.232;10.566;2023-07-13T02:40:53;100558.09;;;15.58;100.00
76853;BME280;65825;52.232;10.566;2023-07-13T02:43:18;100547.84;;;15.50;100.00
76853;BME280;65825;52.232;10.566;2023-07-13T02:45:44;100542.03;;;15.59;100.00
76853;BME280;65825;52.232;10.566;2023-07-13T02:48:09;100547.09;;;15.64;100.00
76853;BME280;65825;52.232;10.566;2023-07-13T02:50:34;100539.13;;;15.64;100.00
76853;BME280;65825;52.232;10.566;2023-07-13T02:53:00;100545.81;;;15.55;100.00
76853;BME280;65825;52.232;10.566;2023-07-13T02:55:25;100545.81;;;15.55;100.00
76853;BME280;65825;52.232;10.566;2023-07-13T02:57:50;100539.94;;;15.49;100.00
76853;BME280;65825;52.232;10.566;2023-07-13T03:00:16;100542.25;;;15.39;100.00
76853;BME280;65825;52.232;10.566;2023-07-13T03:02:41;100529.19;;;15.35;100.00
76853;BME280;65825;52.232;10.566;2023-07-13T03:05:07;100524.22;;;15.27;100.00
76853;BME280;65825;52.232;10.566;2023-07-13T03:07:32;100528.84;;;15.24;100.00
76853;BME280;65825;52.232;10.566;2023-07-13T03:09:58;100537.31;;;15.15;100.00
76853;BME280;65825;52.232;10.566;2023-07-13T03:12:24;100528.75;;;14.93;100.00
76853;BME280;65825;52.232;10.566;2023-07-13T03:14:50;100529.59;;;14.76;100.00
76853;BME280;65825;52.232;10.566;2023-07-13T03:17:15;100521.88;;;14.72;100.00
76853;BME280;65825;52.232;10.566;2023-07-13T03:19:40;100522.72;;;14.55;100.00
76853;BME280;65825;52.232;10.566;2023-07-13T03:22:06;100528.75;;;14.59;100.00
76853;BME280;65825;52.232;10.566;2023-07-13T03:24:33;100530.06;;;14.50;100.00
76853;BME280;65825;52.232;10.566;2023-07-13T03:26:58;100526.94;;;14.42;100.00
76853;BME280;65825;52.232;10.566;2023-07-13T03:29:23;100534.66;;;14.47;100.00
76853;BME280;65825;52.232;10.566;2023-07-13T03:31:49;100539.03;;;14.48;100.00
76853;BME280;65825;52.232;10.566;2023-07-13T03:34:14;100545.78;;;14.38;100.00
76853;BME280;65825;52.232;10.566;2023-07-13T03:36:39;100544.75;;;14.40;100.00
76853;BME280;65825;52.232;10.566;2023-07-13T03:39:04;100539.97;;;14.47;100.00
76853;BME280;65825;52.232;10.566;2023-07-13T03:41:33;100552.56;;;14.60;100.00
76853;BME280;65825;52.232;10.566;2023-07-13T03:43:58;100545.41;;;14.62;100.00
76853;BME280;65825;52.232;10.566;2023-07-13T03:46:24;100560.66;;;14.76;100.00
76853;BME280;65825;52.232;10.566;2023-07-13T03:48:49;100555.16;;;14.79;100.00
76853;BME280;65825;52.232;10.566;2023-07-13T03:51:16;100570.97;;;14.82;100.00
76853;BME280;65825;52.232;10.566;2023-07-13T03:53:43;100569.06;;;14.84;100.00
76853;BME280;65825;52.232;10.566;2023-07-13T03:56:09;100571.03;;;14.80;100.00
76853;BME280;65825;52.232;10.566;2023-07-13T03:58:37;100571.03;;;14.80;100.00
76853;BME280;65825;52.232;10.566;2023-07-13T04:01:05;100569.69;;;14.89;100.00
76853;BME280;65825;52.232;10.566;2023-07-13T04:03:31;100575.88;;;14.89;100.00
76853;BME280;65825;52.232;10.566;2023-07-13T04:05:58;100576.28;;;14.82;100.00
76853;BME280;65825;52.232;10.566;2023-07-13T04:08:28;100576.91;;;14.87;100.00
76853;BME280;65825;52.232;10.566;2023-07-13T04:10:54;100571.91;;;14.81;100.00
76853;BME280;65825;52.232;10.566;2023-07-13T04:13:20;100577.03;;;14.84;100.00
76853;BME280;65825;52.232;10.566;2023-07-13T04:15:45;100579.88;;;14.98;100.00
76853;BME280;65825;52.232;10.566;2023-07-13T04:18:10;100591.78;;;14.91;100.00
76853;BME280;65825;52.232;10.566;2023-07-13T04:20:36;100586.22;;;14.95;100.00
76853;BME280;65825;52.232;10.566;2023-07-13T04:23:01;100590.13;;;15.05;100.00
76853;BME280;65825;52.232;10.566;2023-07-13T04:25:27;100591.28;;;15.17;100.00
76853;BME280;65825;52.232;10.566;2023-07-13T04:27:53;100592.13;;;15.17;100.00
76853;BME280;65825;52.232;10.566;2023-07-13T04:30:18;100601.59;;;15.23;100.00
76853;BME280;65825;52.232;10.566;2023-07-13T04:32:43;100602.47;;;15.23;100.00
76853;BME280;65825;52.232;10.566;2023-07-13T04:35:09;100605.22;;;15.39;100.00
76853;BME280;65825;52.232;10.566;2023-07-13T04:37:34;100602.56;;;15.39;100.00
76853;BME280;65825;52.232;10.566;2023-07-13T04:40:00;100612.03;;;15.44;100.00
76853;BME280;65825;52.232;10.566;2023-07-13T04:42:25;100607.22;;;15.51;100.00
76853;BME280;65825;52.232;10.566;2023-07-13T04:44:51;100605.97;;;15.58;100.00
76853;BME280;65825;52.232;10.566;2023-07-13T04:47:18;100608.13;;;15.67;100.00
76853;BME280;65825;52.232;10.566;2023-07-13T04:49:44;100617.44;;;15.75;100.00
76853;BME280;65825;52.232;10.566;2023-07-13T04:52:10;100615.41;;;15.80;100.00
76853;BME280;65825;52.232;10.566;2023-07-13T04:54:36;100610.91;;;15.81;100.00
76853;BME280;65825;52.232;10.566;2023-07-13T04:57:02;100616.84;;;15.86;100.00
76853;BME280;65825;52.232;10.566;2023-07-13T04:59:28;100616.84;;;15.86;100.00
76853;BME280;65825;52.232;10.566;2023-07-13T05:01:53;100619.28;;;15.90;100.00
76853;BME280;65825;52.232;10.566;2023-07-13T05:04:19;100627.78;;;15.97;100.00
76853;BME280;65825;52.232;10.566;2023-07-13T05:06:44;100625.88;;;15.83;100.00
76853;BME280;65825;52.232;10.566;2023-07-13T05:09:09;100631.38;;;15.96;100.00
76853;BME280;65825;52.232;10.566;2023-07-13T05:11:34;100634.41;;;16.05;100.00
76853;BME280;65825;52.232;10.566;2023-07-13T05:13:59;100637.25;;;16.18;100.00
76853;BME280;65825;52.232;10.566;2023-07-13T05:16:27;100634.97;;;16.27;100.00
76853;BME280;65825;52.232;10.566;2023-07-13T05:18:53;100636.81;;;16.42;100.00
76853;BME280;65825;52.232;10.566;2023-07-13T05:21:18;100636.25;;;16.51;100.00
76853;BME280;65825;52.232;10.566;2023-07-13T05:23:43;100629.75;;;16.57;100.00
76853;BME280;65825;52.232;10.566;2023-07-13T05:26:09;100635.38;;;16.66;99.82
76853;BME280;65825;52.232;10.566;2023-07-13T05:28:34;100632.03;;;16.78;99.30
76853;BME280;65825;52.232;10.566;2023-07-13T05:31:00;100629.59;;;16.89;96.27
76853;BME280;65825;52.232;10.566;2023-07-13T05:33:26;100634.88;;;17.05;93.71
76853;BME280;65825;52.232;10.566;2023-07-13T05:35:51;100633.59;;;17.12;95.30
76853;BME280;65825;52.232;10.566;2023-07-13T05:38:17;100635.78;;;17.19;92.98
76853;BME280;65825;52.232;10.566;2023-07-13T05:40:43;100634.19;;;17.31;92.91
76853;BME280;65825;52.232;10.566;2023-07-13T05:43:08;100634.69;;;17.37;91.30
76853;BME280;65825;52.232;10.566;2023-07-13T05:45:34;100637.69;;;17.47;88.85
76853;BME280;65825;52.232;10.566;2023-07-13T05:47:59;100645.28;;;17.68;88.50
76853;BME280;65825;52.232;10.566;2023-07-13T05:50:26;100634.78;;;17.79;87.19
76853;BME280;65825;52.232;10.566;2023-07-13T05:52:51;100637.38;;;17.95;86.82
76853;BME280;65825;52.232;10.566;2023-07-13T05:55:17;100648.59;;;18.14;82.35
76853;BME280;65825;52.232;10.566;2023-07-13T05:57:42;100641.66;;;18.39;83.20
76853;BME280;65825;52.232;10.566;2023-07-13T06:00:08;100646.81;;;18.69;84.33
76853;BME280;65825;52.232;10.566;2023-07-13T06:02:33;100643.00;;;19.12;79.16
76853;BME280;65825;52.232;10.566;2023-07-13T06:04:59;100642.16;;;19.11;74.90
76853;BME280;65825;52.232;10.566;2023-07-13T06:07:24;100645.00;;;18.96;73.09
76853;BME280;65825;52.232;10.566;2023-07-13T06:09:49;100648.69;;;19.46;72.82
76853;BME280;65825;52.232;10.566;2023-07-13T06:12:14;100644.63;;;19.91;71.00
76853;BME280;65825;52.232;10.566;2023-07-13T06:14:40;100648.41;;;19.76;68.85
76853;BME280;65825;52.232;10.566;2023-07-13T06:17:05;100642.16;;;19.50;69.76
76853;BME280;65825;52.232;10.566;2023-07-13T06:19:31;100648.81;;;19.45;69.52
76853;BME280;65825;52.232;10.566;2023-07-13T06:21:56;100644.72;;;19.39;69.69
76853;BME280;65825;52.232;10.566;2023-07-13T06:24:23;100651.88;;;19.39;70.42
76853;BME280;65825;52.232;10.566;2023-07-13T06:26:48;100652.41;;;19.31;68.65
76853;BME280;65825;52.232;10.566;2023-07-13T06:29:13;100656.03;;;19.30;68.34
76853;BME280;65825;52.232;10.566;2023-07-13T06:31:39;100645.59;;;19.52;68.56
76853;BME280;65825;52.232;10.566;2023-07-13T06:34:04;100651.72;;;19.92;67.54
76853;BME280;65825;52.232;10.566;2023-07-13T06:36:29;100656.84;;;20.20;67.38
76853;BME280;65825;52.232;10.566;2023-07-13T06:38:54;100661.44;;;20.43;66.22
76853;BME280;65825;52.232;10.566;2023-07-13T06:41:20;100660.72;;;20.16;66.41
76853;BME280;65825;52.232;10.566;2023-07-13T06:43:47;100655.66;;;19.86;68.00
76853;BME280;65825;52.232;10.566;2023-07-13T06:46:12;100659.31;;;19.60;69.54
76853;BME280;65825;52.232;10.566;2023-07-13T06:48:37;100658.25;;;19.63;69.11
76853;BME280;65825;52.232;10.566;2023-07-13T06:51:03;100657.28;;;19.64;69.50
76853;BME280;65825;52.232;10.566;2023-07-13T06:53:28;100654.25;;;19.93;68.14
76853;BME280;65825;52.232;10.566;2023-07-13T06:55:53;100666.09;;;19.78;68.70
76853;BME280;65825;52.232;10.566;2023-07-13T06:58:19;100669.09;;;20.24;67.18
76853;BME280;65825;52.232;10.566;2023-07-13T07:00:45;100659.69;;;20.78;65.65
76853;BME280;65825;52.232;10.566;2023-07-13T07:03:10;100665.88;;;20.67;64.46
76853;BME280;65825;52.232;10.566;2023-07-13T07:05:35;100670.47;;;20.65;63.52
76853;BME280;65825;52.232;10.566;2023-07-13T07:08:01;100662.16;;;20.57;62.95
76853;BME280;65825;52.232;10.566;2023-07-13T07:10:26;100664.47;;;20.62;63.90
76853;BME280;65825;52.232;10.566;2023-07-13T07:12:51;100666.63;;;20.57;64.66
76853;BME280;65825;52.232;10.566;2023-07-13T07:15:17;100668.97;;;20.38;64.89
76853;BME280;65825;52.232;10.566;2023-07-13T07:17:43;100661.28;;;20.57;64.85
76853;BME280;65825;52.232;10.566;2023-07-13T07:20:09;100670.03;;;20.35;65.38
76853;BME280;65825;52.232;10.566;2023-07-13T07:22:34;100669.72;;;20.27;64.43
76853;BME280;65825;52.232;10.566;2023-07-13T07:25:00;100666.19;;;20.63;65.04
76853;BME280;65825;52.232;10.566;2023-07-13T07:27:25;100670.78;;;20.73;63.65
76853;BME280;65825;52.232;10.566;2023-07-13T07:29:51;100668.81;;;20.75;63.76
76853;BME280;65825;52.232;10.566;2023-07-13T07:32:16;100673.13;;;20.78;63.55
76853;BME280;65825;52.232;10.566;2023-07-13T07:34:41;100668.25;;;20.83;65.03
76853;BME280;65825;52.232;10.566;2023-07-13T07:37:06;100672.53;;;20.98;64.73
76853;BME280;65825;52.232;10.566;2023-07-13T07:39:32;100673.69;;;20.70;63.64
76853;BME280;65825;52.232;10.566;2023-07-13T07:41:57;100674.03;;;20.66;62.37
76853;BME280;65825;52.232;10.566;2023-07-13T07:44:23;100664.78;;;21.06;61.26
76853;BME280;65825;52.232;10.566;2023-07-13T07:46:48;100668.84;;;21.22;61.79
76853;BME280;65825;52.232;10.566;2023-07-13T07:49:14;100675.53;;;21.40;61.15
76853;BME280;65825;52.232;10.566;2023-07-13T07:51:39;100674.47;;;21.54;59.45
76853;BME280;65825;52.232;10.566;2023-07-13T07:54:05;100680.41;;;21.35;60.36
76853;BME280;65825;52.232;10.566;2023-07-13T07:56:30;100671.56;;;21.57;58.47
76853;BME280;65825;52.232;10.566;2023-07-13T07:58:56;100688.06;;;21.29;56.61
76853;BME280;65825;52.232;10.566;2023-07-13T08:01:22;100677.69;;;21.01;57.10
76853;BME280;65825;52.232;10.566;2023-07-13T08:03:47;100679.22;;;21.16;57.01
76853;BME280;65825;52.232;10.566;2023-07-13T08:06:12;100676.19;;;21.20;57.43
76853;BME280;65825;52.232;10.566;2023-07-13T08:08:38;100683.13;;;21.92;55.57
76853;BME280;65825;52.232;10.566;2023-07-13T08:11:05;100690.56;;;22.45;55.24
76853;BME280;65825;52.232;10.566;2023-07-13T08:13:31;100683.59;;;23.07;52.61
76853;BME280;65825;52.232;10.566;2023-07-13T08:15:56;100680.94;;;23.27;50.90
76853;BME280;65825;52.232;10.566;2023-07-13T08:18:21;100690.13;;;23.57;49.27
76853;BME280;65825;52.232;10.566;2023-07-13T08:20:46;100683.06;;;23.44;49.96
76853;BME280;65825;52.232;10.566;2023-07-13T08:23:12;100672.91;;;24.10;49.17
76853;BME280;65825;52.232;10.566;2023-07-13T08:25:37;100685.44;;;24.20;47.39
76853;BME280;65825;52.232;10.566;2023-07-13T08:28:03;100680.59;;;23.52;49.27
76853;BME280;65825;52.232;10.566;2023-07-13T08:30:29;100685.44;;;24.20;49.02
76853;BME280;65825;52.232;10.566;2023-07-13T08:32:54;100687.84;;;24.14;48.58
76853;BME280;65825;52.232;10.566;2023-07-13T08:35:19;100681.63;;;23.93;48.50
76853;BME280;65825;52.232;10.566;2023-07-13T08:37:44;100696.13;;;22.86;50.14
76853;BME280;65825;52.232;10.566;2023-07-13T08:40:11;100697.09;;;23.59;48.76
76853;BME280;65825;52.232;10.566;2023-07-13T08:42:39;100695.94;;;23.09;50.51
76853;BME280;65825;52.232;10.566;2023-07-13T08:48:11;100687.50;;;24.07;47.95
76853;BME280;65825;52.232;10.566;2023-07-13T08:50:57;100696.06;;;24.12;47.21
76853;BME280;65825;52.232;10.566;2023-07-13T08:53:24;100689.91;;;24.61;45.28
76853;BME280;65825;52.232;10.566;2023-07-13T08:55:58;100688.66;;;25.33;42.23
76853;BME280;65825;52.232;10.566;2023-07-13T08:58:25;100702.75;;;26.30;40.51
76853;BME280;65825;52.232;10.566;2023-07-13T09:03:27;100692.25;;;28.13;37.55
76853;BME280;65825;52.232;10.566;2023-07-13T09:05:58;100694.25;;;29.11;36.81
76853;BME280;65825;52.232;10.566;2023-07-13T09:08:54;100709.56;;;29.04;35.25
76853;BME280;65825;52.232;10.566;2023-07-13T09:11:59;100707.34;;;28.66;35.54
76853;BME280;65825;52.232;10.566;2023-07-13T09:14:42;100700.84;;;30.22;33.22
76853;BME280;65825;52.232;10.566;2023-07-13T09:17:29;100708.09;;;27.12;37.97
76853;BME280;65825;52.232;10.566;2023-07-13T09:20:17;100707.38;;;28.74;35.27
76853;BME280;65825;52.232;10.566;2023-07-13T09:22:46;100708.13;;;26.85;38.46
76853;BME280;65825;52.232;10.566;2023-07-13T09:27:39;100705.78;;;29.79;34.46
76853;BME280;65825;52.232;10.566;2023-07-13T09:32:44;100705.56;;;29.48;33.25
76853;BME280;65825;52.232;10.566;2023-07-13T09:35:12;100712.00;;;27.27;37.10
76853;BME280;65825;52.232;10.566;2023-07-13T09:37:38;100709.84;;;28.60;35.49
76853;BME280;65825;52.232;10.566;2023-07-13T09:40:11;100709.00;;;32.28;29.67
76853;BME280;65825;52.232;10.566;2023-07-13T09:42:38;100709.00;;;33.15;28.94
76853;BME280;65825;52.232;10.566;2023-07-13T09:45:05;100704.91;;;29.62;33.51
76853;BME280;65825;52.232;10.566;2023-07-13T09:47:33;100701.84;;;29.73;33.63
76853;BME280;65825;52.232;10.566;2023-07-13T09:50:06;100703.56;;;32.05;30.90
76853;BME280;65825;52.232;10.566;2023-07-13T09:52:47;100703.97;;;33.18;28.93
76853;BME280;65825;52.232;10.566;2023-07-13T09:55:31;100708.31;;;31.21;30.00
76853;BME280;65825;52.232;10.566;2023-07-13T09:57:58;100709.84;;;31.46;29.78
76853;BME280;65825;52.232;10.566;2023-07-13T10:00:29;100712.22;;;32.89;29.45
76853;BME280;65825;52.232;10.566;2023-07-13T10:03:03;100704.50;;;32.78;27.68
76853;BME280;65825;52.232;10.566;2023-07-13T10:05:40;100694.53;;;32.42;30.34
76853;BME280;65825;52.232;10.566;2023-07-13T10:08:05;100695.84;;;30.42;31.76
76853;BME280;65825;52.232;10.566;2023-07-13T10:10:32;100710.53;;;30.25;32.81
76853;BME280;65825;52.232;10.566;2023-07-13T10:12:58;100706.41;;;32.12;30.16
76853;BME280;65825;52.232;10.566;2023-07-13T10:15:24;100702.97;;;32.32;30.46
76853;BME280;65825;52.232;10.566;2023-07-13T10:17:54;100707.06;;;31.99;30.21
76853;BME280;65825;52.232;10.566;2023-07-13T10:20:21;100706.34;;;30.53;32.17
76853;BME280;65825;52.232;10.566;2023-07-13T10:22:54;100690.13;;;28.91;35.34
76853;BME280;65825;52.232;10.566;2023-07-13T10:25:23;100705.25;;;32.06;30.28
76853;BME280;65825;52.232;10.566;2023-07-13T10:27:52;100688.91;;;30.23;32.56
76853;BME280;65825;52.232;10.566;2023-07-13T10:30:25;100704.25;;;29.60;34.31
76853;BME280;65825;52.232;10.566;2023-07-13T10:32:53;100704.28;;;30.63;32.71
76853;BME280;65825;52.232;10.566;2023-07-13T10:35:20;100696.81;;;30.57;32.19
76853;BME280;65825;52.232;10.566;2023-07-13T10:37:54;100713.09;;;30.81;33.22
76853;BME280;65825;52.232;10.566;2023-07-13T10:40:58;100700.84;;;29.66;34.18
76853;BME280;65825;52.232;10.566;2023-07-13T10:43:28;100706.06;;;30.40;32.23
76853;BME280;65825;52.232;10.566;2023-07-13T10:45:56;100695.72;;;30.27;33.19
76853;BME280;65825;52.232;10.566;2023-07-13T10:48:23;100700.38;;;33.18;29.36
76853;BME280;65825;52.232;10.566;2023-07-13T10:50:50;100703.28;;;32.95;28.39
76853;BME280;65825;52.232;10.566;2023-07-13T10:53:19;100699.78;;;35.42;26.91
76853;BME280;65825;52.232;10.566;2023-07-13T10:58:20;100692.69;;;36.32;24.96
76853;BME280;65825;52.232;10.566;2023-07-13T11:03:50;100696.66;;;35.65;25.62
76853;BME280;65825;52.232;10.566;2023-07-13T11:14:00;100709.34;;;31.65;30.06
76853;BME280;65825;52.232;10.566;2023-07-13T11:16:41;100699.59;;;29.45;34.55
76853;BME280;65825;52.232;10.566;2023-07-13T11:21:33;100708.38;;;27.09;38.80
76853;BME280;65825;52.232;10.566;2023-07-13T11:24:16;100698.47;;;32.54;29.40
76853;BME280;65825;52.232;10.566;2023-07-13T11:26:51;100687.16;;;36.45;24.86
76853;BME280;65825;52.232;10.566;2023-07-13T11:29:31;100700.88;;;31.83;30.37
76853;BME280;65825;52.232;10.566;2023-07-13T11:32:00;100696.78;;;32.38;28.33
76853;BME280;65825;52.232;10.566;2023-07-13T11:34:27;100696.69;;;34.30;27.12
76853;BME280;65825;52.232;10.566;2023-07-13T11:36:56;100685.06;;;36.41;23.83
76853;BME280;65825;52.232;10.566;2023-07-13T11:39:28;100699.41;;;31.72;28.35
76853;BME280;65825;52.232;10.566;2023-07-13T11:42:12;100695.41;;;28.59;34.01
76853;BME280;65825;52.232;10.566;2023-07-13T11:44:43;100691.94;;;30.91;32.83
76853;BME280;65825;52.232;10.566;2023-07-13T11:47:11;100687.19;;;36.39;24.52
76853;BME280;65825;52.232;10.566;2023-07-13T11:49:48;100688.00;;;37.16;24.95
76853;BME280;65825;52.232;10.566;2023-07-13T11:52:16;100699.03;;;37.09;23.17
76853;BME280;65825;52.232;10.566;2023-07-13T11:54:53;100705.72;;;34.99;25.25
76853;BME280;65825;52.232;10.566;2023-07-13T11:57:30;100696.19;;;35.35;24.22
76853;BME280;65825;52.232;10.566;2023-07-13T11:59:59;100691.31;;;31.03;28.73
76853;BME280;65825;52.232;10.566;2023-07-13T12:02:29;100691.88;;;28.08;35.50
76853;BME280;65825;52.232;10.566;2023-07-13T12:04:56;100686.34;;;28.43;35.23
76853;BME280;65825;52.232;10.566;2023-07-13T12:07:22;100688.94;;;28.52;33.47
76853;BME280;65825;52.232;10.566;2023-07-13T12:09:47;100678.94;;;28.02;34.04
76853;BME280;65825;52.232;10.566;2023-07-13T12:12:22;100680.94;;;27.22;35.46
76853;BME280;65825;52.232;10.566;2023-07-13T12:14:51;100689.06;;;27.57;35.68
76853;BME280;65825;52.232;10.566;2023-07-13T12:17:22;100687.31;;;26.13;36.97
76853;BME280;65825;52.232;10.566;2023-07-13T12:19:48;100686.16;;;28.78;34.65
76853;BME280;65825;52.232;10.566;2023-07-13T12:22:17;100696.31;;;27.91;34.29
76853;BME280;65825;52.232;10.566;2023-07-13T12:24:43;100681.69;;;32.86;28.67
76853;BME280;65825;52.232;10.566;2023-07-13T12:27:27;100684.03;;;33.39;25.30
76853;BME280;65825;52.232;10.566;2023-07-13T12:30:02;100682.16;;;31.72;28.25
76853;BME280;65825;52.232;10.566;2023-07-13T12:32:28;100697.25;;;30.22;32.28
76853;BME280;65825;52.232;10.566;2023-07-13T12:35:15;100687.22;;;30.06;32.31
76853;BME280;65825;52.232;10.566;2023-07-13T12:37:44;100696.59;;;35.32;24.63
76853;BME280;65825;52.232;10.566;2023-07-13T12:40:19;100689.28;;;36.30;23.09
76853;BME280;65825;52.232;10.566;2023-07-13T12:42:47;100679.41;;;38.41;21.26
76853;BME280;65825;52.232;10.566;2023-07-13T12:45:24;100687.66;;;35.17;23.71
76853;BME280;65825;52.232;10.566;2023-07-13T12:47:55;100680.19;;;36.43;22.21
76853;BME280;65825;52.232;10.566;2023-07-13T12:50:23;100677.41;;;35.65;21.62
76853;BME280;65825;52.232;10.566;2023-07-13T12:52:54;100664.78;;;37.43;21.58
76853;BME280;65825;52.232;10.566;2023-07-13T12:55:20;100677.44;;;36.17;22.21
76853;BME280;65825;52.232;10.566;2023-07-13T12:57:59;100680.03;;;37.39;21.76
76853;BME280;65825;52.232;10.566;2023-07-13T13:00:30;100673.63;;;37.45;20.94
76853;BME280;65825;52.232;10.566;2023-07-13T13:03:02;100669.56;;;37.54;21.18
76853;BME280;65825;52.232;10.566;2023-07-13T13:05:29;100666.25;;;36.12;23.44
76853;BME280;65825;52.232;10.566;2023-07-13T13:07:55;100670.28;;;32.82;26.62